Time;durP1;ratioP1;P1;durP2;ratioP2;P2;SDS_P1;SDS_P2;PMS_P1;PMS_P2;Temp;Humidity;BMP_temperature;BMP_pressure;BME280_temperature;BME280_humidity;BME280_pressure;Samples;Min_cycle;Max_cycle;Signal;HPM_P1;HPM_P2
2023/06/30 00:02:20;;;;;;;3.95;2.40;;;16.30;99.90;;;;;;5052652;28;20122;-74
2023/06/30 00:04:47;;;;;;;6.45;2.80;;;16.20;99.90;;;;;;5053277;28;20044;-75
2023/06/30 00:07:13;;;;;;;4.40;2.70;;;16.10;99.90;;;;;;5051122;28;20044;-74
2023/06/30 00:09:39;;;;;;;5.22;2.50;;;16.10;99.90;;;;;;5043887;28;20047;-74
2023/06/30 00:12:05;;;;;;;8.23;2.60;;;16.10;99.90;;;;;;5048140;28;20688;-75
2023/06/30 00:14:31;;;;;;;8.27;2.58;;;16.10;99.90;;;;;;5045697;28;20053;-74
2023/06/30 00:16:56;;;;;;;3.78;2.40;;;16.10;99.90;;;;;;5048862;28;20455;-75
2023/06/30 00:19:24;;;;;;;5.40;2.50;;;16.10;99.90;;;;;;5043841;28;20093;-74
2023/06/30 00:21:52;;;;;;;6.88;3.00;;;16.10;99.90;;;;;;5053106;28;20092;-74
2023/06/30 00:24:18;;;;;;;10.35;3.45;;;16.10;99.90;;;;;;5043377;28;20045;-75
2023/06/30 00:26:44;;;;;;;6.47;2.58;;;16.10;99.90;;;;;;5056348;28;20041;-75
2023/06/30 00:29:10;;;;;;;5.70;2.88;;;16.10;99.90;;;;;;5049374;28;20052;-74
2023/06/30 00:31:36;;;;;;;7.07;2.30;;;16.10;99.90;;;;;;5049852;28;20041;-74
2023/06/30 00:34:02;;;;;;;4.28;2.20;;;;;;;;;;5048683;28;20106;-74
2023/06/30 00:36:29;;;;;;;6.38;2.47;;;16.10;99.90;;;;;;5056658;28;20047;-75
2023/06/30 00:38:55;;;;;;;6.47;2.75;;;16.20;99.90;;;;;;5052370;28;20055;-74
2023/06/30 00:41:24;;;;;;;5.22;2.35;;;16.00;99.90;;;;;;5042141;28;20060;-75
2023/06/30 00:43:49;;;;;;;4.28;2.40;;;16.00;99.90;;;;;;5045246;28;20033;-75
2023/06/30 00:46:17;;;;;;;6.97;2.30;;;16.00;99.90;;;;;;5045745;28;20079;-74
2023/06/30 00:48:44;;;;;;;5.35;2.88;;;16.00;99.90;;;;;;5044191;28;20393;-76
2023/06/30 00:51:11;;;;;;;3.90;2.58;;;16.00;99.90;;;;;;5044613;28;20547;-75
2023/06/30 00:53:37;;;;;;;6.22;2.83;;;15.90;99.90;;;;;;5044057;28;20175;-75
2023/06/30 00:56:03;;;;;;;4.50;2.50;;;16.00;99.90;;;;;;5042655;28;20132;-74
2023/06/30 00:58:29;;;;;;;3.75;2.22;;;16.00;99.90;;;;;;5040513;28;20071;-74
2023/06/30 01:01:02;;;;;;;7.53;2.70;;;15.90;99.90;;;;;;5046459;28;20040;-75
2023/06/30 01:03:34;;;;;;;9.38;2.72;;;16.00;99.90;;;;;;5043253;28;20115;-74
2023/06/30 01:06:23;;;;;;;5.50;2.50;;;16.00;99.90;;;;;;5042759;28;20953;-74
2023/06/30 01:08:56;;;;;;;5.82;2.42;;;16.00;99.90;;;;;;5040769;28;20107;-75
2023/06/30 01:11:24;;;;;;;4.35;2.47;;;16.00;99.90;;;;;;5050610;28;20436;-74
2023/06/30 01:13:55;;;;;;;5.13;2.53;;;16.10;99.90;;;;;;5044845;28;20041;-75
2023/06/30 01:16:23;;;;;;;5.63;3.00;;;16.10;99.90;;;;;;5044704;28;20045;-74
2023/06/30 01:18:52;;;;;;;6.93;2.80;;;16.10;99.90;;;;;;5053254;28;20044;-75
2023/06/30 01:21:21;;;;;;;6.32;2.30;;;16.00;99.90;;;;;;5050057;28;20159;-74
2023/06/30 01:24:06;;;;;;;7.55;2.70;;;16.10;99.90;;;;;;5056153;28;20051;-74
2023/06/30 01:26:34;;;;;;;4.60;2.88;;;16.10;99.90;;;;;;5054651;28;20059;-74
2023/06/30 01:29:06;;;;;;;4.50;2.50;;;16.10;99.90;;;;;;5056328;28;20089;-73
2023/06/30 01:31:32;;;;;;;8.27;2.70;;;16.00;99.90;;;;;;5053053;28;20140;-74
2023/06/30 01:34:02;;;;;;;7.10;2.50;;;16.10;99.90;;;;;;5057602;28;20510;-75
2023/06/30 01:36:28;;;;;;;9.05;2.50;;;16.10;99.90;;;;;;5056006;28;20116;-75
2023/06/30 01:38:54;;;;;;;6.53;2.50;;;16.10;99.90;;;;;;5051502;28;20162;-75
2023/06/30 01:41:21;;;;;;;4.55;2.60;;;16.10;99.90;;;;;;5067937;28;20099;-74
2023/06/30 01:43:47;;;;;;;7.28;3.08;;;16.10;99.90;;;;;;5054653;28;20465;-75
2023/06/30 01:46:14;;;;;;;6.40;2.70;;;16.10;99.90;;;;;;5057387;28;20135;-75
2023/06/30 01:48:40;;;;;;;5.30;2.50;;;16.00;99.90;;;;;;5043139;28;20049;-76
2023/06/30 01:51:07;;;;;;;5.22;2.55;;;16.10;99.90;;;;;;5052657;28;20130;-74
2023/06/30 01:53:33;;;;;;;9.85;2.83;;;16.00;99.90;;;;;;5046691;28;20049;-74
2023/06/30 01:55:58;;;;;;;3.70;2.40;;;16.00;99.90;;;;;;5048935;28;20048;-75
2023/06/30 01:58:24;;;;;;;8.43;2.60;;;16.00;99.90;;;;;;5046804;28;20045;-74
2023/06/30 02:00:50;;;;;;;5.35;2.80;;;16.00;99.90;;;;;;5047279;28;20049;-74
2023/06/30 02:03:15;;;;;;;7.18;2.53;;;15.90;99.90;;;;;;5053709;28;20442;-74
2023/06/30 02:05:41;;;;;;;8.20;2.80;;;15.90;99.90;;;;;;5046379;28;20068;-75
2023/06/30 02:08:07;;;;;;;4.47;2.60;;;15.90;99.90;;;;;;5045913;28;20102;-74
2023/06/30 02:10:32;;;;;;;4.60;2.45;;;16.00;99.90;;;;;;5055434;28;20121;-74
2023/06/30 02:12:58;;;;;;;4.65;2.65;;;15.90;99.90;;;;;;5046906;28;20047;-74
2023/06/30 02:15:24;;;;;;;6.18;2.60;;;15.90;99.90;;;;;;5047716;28;20056;-74
2023/06/30 02:17:49;;;;;;;8.07;2.63;;;15.90;99.90;;;;;;5046057;28;20108;-74
2023/06/30 02:20:15;;;;;;;5.10;2.42;;;15.90;99.90;;;;;;5044037;28;20053;-74
2023/06/30 02:22:41;;;;;;;6.97;2.60;;;15.90;99.90;;;;;;5038036;28;20057;-75
2023/06/30 02:25:07;;;;;;;7.75;2.70;;;15.90;99.90;;;;;;5055968;28;20051;-74
2023/06/30 02:27:33;;;;;;;7.30;2.53;;;15.90;99.90;;;;;;5057799;28;20117;-74
2023/06/30 02:30:04;;;;;;;8.02;2.95;;;15.80;99.90;;;;;;5053066;28;20028;-74
2023/06/30 02:32:31;;;;;;;6.72;2.70;;;15.70;99.90;;;;;;5056482;28;20033;-74
2023/06/30 02:34:57;;;;;;;5.70;2.58;;;15.80;99.90;;;;;;5047668;28;20551;-74
2023/06/30 02:37:23;;;;;;;4.40;2.65;;;15.80;99.90;;;;;;5057853;28;20087;-74
2023/06/30 02:39:48;;;;;;;6.57;2.50;;;15.80;99.90;;;;;;5051966;28;20041;-75
2023/06/30 02:42:14;;;;;;;7.18;2.42;;;15.70;99.90;;;;;;5061279;28;20423;-75
2023/06/30 02:44:40;;;;;;;4.20;2.35;;;15.80;99.90;;;;;;5057538;28;20393;-76
2023/06/30 02:47:05;;;;;;;3.90;2.20;;;15.70;99.90;;;;;;5059929;28;20033;-75
2023/06/30 02:49:31;;;;;;;5.63;2.35;;;15.70;99.90;;;;;;5048701;28;20040;-75
2023/06/30 02:51:57;;;;;;;5.85;2.70;;;15.70;99.90;;;;;;5048982;28;20049;-75
2023/06/30 02:54:22;;;;;;;5.90;2.70;;;15.70;99.90;;;;;;5052509;28;20095;-75
2023/06/30 02:56:48;;;;;;;4.32;2.40;;;15.70;99.90;;;;;;5051967;28;20045;-75
2023/06/30 02:59:13;;;;;;;7.53;2.70;;;15.70;99.90;;;;;;5051955;28;20037;-75
2023/06/30 03:01:41;;;;;;;5.10;2.95;;;15.70;99.90;;;;;;5046196;28;20049;-76
2023/06/30 03:04:07;;;;;;;6.07;2.60;;;15.60;99.90;;;;;;5047051;28;20101;-75
2023/06/30 03:06:32;;;;;;;8.05;3.03;;;15.60;99.90;;;;;;5044697;28;20516;-75
2023/06/30 03:08:58;;;;;;;6.43;2.47;;;15.70;99.90;;;;;;5046225;28;20367;-75
2023/06/30 03:11:24;;;;;;;5.28;2.50;;;15.60;99.90;;;;;;5045585;28;20040;-75
2023/06/30 03:13:52;;;;;;;4.68;2.30;;;15.60;99.90;;;;;;5042622;28;20072;-75
2023/06/30 03:16:18;;;;;;;5.15;2.30;;;15.50;99.90;;;;;;5043044;28;20452;-75
2023/06/30 03:18:44;;;;;;;8.43;2.72;;;15.60;99.90;;;;;;5044645;28;20099;-76
2023/06/30 03:21:10;;;;;;;4.53;2.33;;;15.60;99.90;;;;;;5042231;28;20057;-75
2023/06/30 03:23:36;;;;;;;5.90;2.22;;;15.60;99.90;;;;;;5042745;28;20095;-75
2023/06/30 03:26:02;;;;;;;4.55;2.70;;;15.60;99.90;;;;;;5043523;28;20550;-76
2023/06/30 03:28:27;;;;;;;6.50;2.10;;;15.60;99.90;;;;;;5052802;28;20128;-75
2023/06/30 03:30:53;;;;;;;7.00;2.50;;;15.60;99.90;;;;;;5050258;28;20124;-76
2023/06/30 03:33:19;;;;;;;5.70;2.30;;;15.70;99.90;;;;;;5054319;28;20087;-75
2023/06/30 03:35:46;;;;;;;6.28;2.35;;;15.70;99.90;;;;;;5060609;28;20063;-76
2023/06/30 03:38:12;;;;;;;3.67;2.20;;;15.70;99.90;;;;;;5058587;28;20164;-75
2023/06/30 03:40:37;;;;;;;3.78;2.20;;;15.70;99.90;;;;;;5056747;28;20476;-75
2023/06/30 03:43:03;;;;;;;4.40;2.15;;;15.70;99.90;;;;;;5039754;28;20088;-75
2023/06/30 03:45:29;;;;;;;4.38;2.20;;;15.80;99.90;;;;;;5061850;28;20060;-75
2023/06/30 03:47:54;;;;;;;5.28;2.38;;;15.80;99.90;;;;;;5047629;28;20468;-76
2023/06/30 03:50:20;;;;;;;6.32;2.50;;;15.80;99.90;;;;;;5049243;28;20037;-75
2023/06/30 03:52:46;;;;;;;7.28;2.38;;;15.80;99.90;;;;;;5051515;28;20041;-76
2023/06/30 03:55:12;;;;;;;8.27;2.20;;;15.80;99.90;;;;;;5051788;28;20064;-75
2023/06/30 03:57:37;;;;;;;3.85;2.15;;;15.80;99.90;;;;;;5049409;28;20075;-75
2023/06/30 04:00:04;;;;;;;6.97;2.30;;;15.90;99.90;;;;;;5052546;28;20045;-75
2023/06/30 04:02:30;;;;;;;6.88;2.58;;;16.00;99.90;;;;;;5053032;28;20032;-75
2023/06/30 04:04:55;;;;;;;6.03;2.50;;;15.90;99.90;;;;;;5048813;28;20409;-75
2023/06/30 04:07:21;;;;;;;5.13;2.20;;;15.90;99.90;;;;;;5043881;28;20397;-75
2023/06/30 04:09:47;;;;;;;4.78;2.38;;;15.90;99.90;;;;;;5046155;28;20074;-75
2023/06/30 04:12:13;;;;;;;4.18;2.25;;;16.00;99.90;;;;;;5044759;28;20044;-75
2023/06/30 04:14:38;;;;;;;5.07;2.85;;;16.00;99.90;;;;;;5044675;28;20550;-75
2023/06/30 04:17:05;;;;;;;4.63;2.20;;;16.00;99.90;;;;;;5041254;28;20429;-76
2023/06/30 04:19:30;;;;;;;6.68;2.38;;;16.00;99.90;;;;;;5044279;28;20059;-75
2023/06/30 04:21:56;;;;;;;6.88;2.55;;;16.10;99.90;;;;;;5043305;28;20056;-76
2023/06/30 04:24:21;;;;;;;3.15;2.15;;;16.10;99.90;;;;;;5046196;28;20045;-75
2023/06/30 04:26:47;;;;;;;5.25;2.42;;;16.20;99.90;;;;;;5042980;28;20045;-76
2023/06/30 04:29:13;;;;;;;6.80;2.30;;;16.20;99.90;;;;;;5043859;28;20052;-75
2023/06/30 04:31:39;;;;;;;4.13;2.30;;;16.20;99.90;;;;;;5041403;28;20476;-75
2023/06/30 04:34:05;;;;;;;5.82;2.85;;;16.20;99.90;;;;;;5046689;28;20049;-75
2023/06/30 04:36:31;;;;;;;5.45;2.30;;;16.20;99.90;;;;;;5043534;28;20033;-74
2023/06/30 04:38:57;;;;;;;5.43;2.55;;;16.20;99.90;;;;;;5069869;28;20511;-75
2023/06/30 04:41:23;;;;;;;4.95;2.38;;;16.20;99.90;;;;;;5041801;28;20033;-75
2023/06/30 04:43:49;;;;;;;7.13;2.40;;;16.10;99.90;;;;;;5046810;28;20392;-75
2023/06/30 04:46:15;;;;;;;7.82;2.53;;;16.10;99.90;;;;;;5058514;28;20041;-75
2023/06/30 04:48:41;;;;;;;6.72;2.30;;;16.10;99.90;;;;;;5062600;28;20102;-76
2023/06/30 04:51:07;;;;;;;6.80;2.22;;;16.10;99.90;;;;;;5051139;28;20037;-76
2023/06/30 04:53:33;;;;;;;6.22;2.30;;;16.10;99.90;;;;;;5048931;28;20042;-76
2023/06/30 04:55:59;;;;;;;7.03;2.28;;;16.10;99.90;;;;;;5045980;28;20126;-75
2023/06/30 04:58:24;;;;;;;8.10;2.47;;;16.10;99.90;;;;;;5047882;28;20080;-75
2023/06/30 05:00:50;;;;;;;9.85;2.47;;;16.20;99.90;;;;;;5047804;28;20049;-75
2023/06/30 05:03:15;;;;;;;4.10;2.40;;;16.20;99.90;;;;;;5052563;28;20037;-76
2023/06/30 05:05:41;;;;;;;5.20;2.25;;;16.20;99.90;;;;;;5047751;28;20116;-77
2023/06/30 05:08:07;;;;;;;3.25;2.40;;;16.20;99.90;;;;;;5051587;28;20058;-76
2023/06/30 05:10:33;;;;;;;3.55;2.38;;;16.30;99.90;;;;;;5062855;28;20049;-75
2023/06/30 05:12:58;;;;;;;8.52;4.15;;;16.30;99.90;;;;;;5058557;28;20047;-75
2023/06/30 05:15:24;;;;;;;6.30;3.25;;;16.30;99.90;;;;;;5060319;28;20060;-75
2023/06/30 05:17:50;;;;;;;6.03;2.38;;;16.40;99.90;;;;;;5056254;28;20045;-76
2023/06/30 05:20:15;;;;;;;5.72;2.38;;;16.50;99.90;;;;;;5049035;28;20055;-74
2023/06/30 05:22:41;;;;;;;4.53;2.45;;;16.60;99.90;;;;;;5051238;28;20136;-78
2023/06/30 05:25:07;;;;;;;5.00;2.58;;;16.60;99.90;;;;;;5047728;28;20072;-77
2023/06/30 05:27:33;;;;;;;5.47;2.33;;;16.60;99.90;;;;;;5052661;28;20052;-76
2023/06/30 05:29:59;;;;;;;6.53;2.22;;;16.50;99.90;;;;;;5049335;28;20059;-75
2023/06/30 05:32:25;;;;;;;4.50;2.50;;;16.60;99.90;;;;;;5040606;28;20052;-74
2023/06/30 05:34:51;;;;;;;4.75;2.53;;;16.60;99.90;;;;;;5049786;28;20118;-75
2023/06/30 05:37:16;;;;;;;6.60;2.50;;;16.50;99.90;;;;;;5043334;28;20443;-75
2023/06/30 05:39:42;;;;;;;5.07;2.25;;;16.50;99.90;;;;;;5048561;28;20374;-76
2023/06/30 05:42:08;;;;;;;3.35;2.30;;;16.50;99.90;;;;;;5042387;28;20369;-75
2023/06/30 05:44:33;;;;;;;5.53;2.47;;;16.50;99.90;;;;;;5043791;28;20789;-75
2023/06/30 05:46:59;;;;;;;5.55;2.53;;;16.60;99.90;;;;;;5054056;28;20047;-76
2023/06/30 05:49:25;;;;;;;5.28;2.55;;;16.60;99.90;;;;;;5055132;28;20041;-75
2023/06/30 05:51:51;;;;;;;6.70;2.67;;;16.60;99.90;;;;;;5046090;28;20538;-75
2023/06/30 05:54:17;;;;;;;8.15;2.60;;;16.60;99.90;;;;;;5065973;28;20049;-75
2023/06/30 05:56:42;;;;;;;4.93;2.47;;;16.60;99.90;;;;;;5054338;28;20419;-75
2023/06/30 05:59:10;;;;;;;5.18;2.15;;;16.50;99.90;;;;;;5054065;28;20463;-75
2023/06/30 06:01:39;;;;;;;4.90;2.53;;;16.60;99.90;;;;;;5062226;28;20541;-74
2023/06/30 06:04:09;;;;;;;5.10;2.53;;;16.70;99.90;;;;;;5050201;28;20048;-75
2023/06/30 06:06:35;;;;;;;5.15;2.60;;;16.60;99.90;;;;;;5052456;28;20418;-74
2023/06/30 06:09:01;;;;;;;6.32;2.50;;;16.70;99.90;;;;;;5041098;28;20063;-74
2023/06/30 06:11:27;;;;;;;7.05;3.08;;;16.70;99.90;;;;;;5044552;28;20041;-75
2023/06/30 06:13:52;;;;;;;4.68;2.35;;;16.70;99.90;;;;;;5047487;28;20094;-75
2023/06/30 06:16:18;;;;;;;4.70;2.10;;;16.80;99.90;;;;;;5045006;28;20036;-74
2023/06/30 06:18:44;;;;;;;6.47;2.25;;;16.90;99.90;;;;;;5052296;28;20333;-74
2023/06/30 06:21:09;;;;;;;4.35;2.10;;;17.00;99.90;;;;;;5056146;28;20141;-74
2023/06/30 06:23:35;;;;;;;7.30;2.38;;;16.90;99.90;;;;;;5044128;28;20047;-75
2023/06/30 06:26:04;;;;;;;5.10;2.30;;;16.90;99.90;;;;;;5043557;28;20049;-74
2023/06/30 06:28:30;;;;;;;13.45;2.63;;;17.00;99.90;;;;;;5040393;28;20048;-74
2023/06/30 06:30:55;;;;;;;6.85;2.45;;;17.00;99.90;;;;;;5049338;28;20045;-75
2023/06/30 06:33:21;;;;;;;5.88;2.50;;;17.00;99.90;;;;;;5047610;28;20362;-75
2023/06/30 06:35:50;;;;;;;5.10;2.65;;;17.00;99.90;;;;;;5050577;28;20039;-76
2023/06/30 06:38:17;;;;;;;7.82;2.90;;;17.00;99.90;;;;;;5044953;28;20044;-75
2023/06/30 06:40:46;;;;;;;6.88;2.70;;;17.00;99.90;;;;;;5042665;28;20045;-75
2023/06/30 06:43:12;;;;;;;5.22;2.50;;;17.00;99.90;;;;;;5050790;28;20056;-75
2023/06/30 06:45:38;;;;;;;9.48;3.08;;;17.00;99.90;;;;;;5047856;28;20045;-75
2023/06/30 06:48:23;;;;;;;3.80;2.60;;;17.00;99.90;;;;;;5051016;28;20155;-75
2023/06/30 06:50:53;;;;;;;3.92;2.10;;;17.10;99.90;;;;;;5038075;28;20330;-75
2023/06/30 06:53:22;;;;;;;5.05;2.58;;;17.20;99.90;;;;;;5039886;28;20057;-75
2023/06/30 06:55:49;;;;;;;4.07;2.30;;;17.20;99.90;;;;;;5037659;28;20049;-75
2023/06/30 06:58:16;;;;;;;7.38;2.50;;;17.10;99.90;;;;;;5040391;28;20033;-75
2023/06/30 07:00:43;;;;;;;4.82;2.10;;;17.00;99.90;;;;;;5042968;28;20056;-75
2023/06/30 07:03:09;;;;;;;4.38;2.35;;;17.10;99.90;;;;;;5044428;28;20045;-75
2023/06/30 07:05:34;;;;;;;4.28;2.45;;;17.10;99.90;;;;;;5035298;28;20389;-75
2023/06/30 07:08:00;;;;;;;7.88;2.80;;;17.10;99.90;;;;;;5049126;28;20056;-75
2023/06/30 07:10:28;;;;;;;6.50;2.50;;;17.10;99.90;;;;;;5051126;28;20037;-74
2023/06/30 07:12:54;;;;;;;4.68;2.53;;;17.20;99.90;;;;;;5049476;28;20052;-75
2023/06/30 07:15:20;;;;;;;5.25;2.58;;;17.20;99.90;;;;;;5050718;28;20048;-75
2023/06/30 07:17:45;;;;;;;5.93;2.63;;;17.20;99.90;;;;;;5045808;28;20041;-74
2023/06/30 07:20:11;;;;;;;5.82;2.38;;;17.30;99.90;;;;;;5079431;28;20049;-75
2023/06/30 07:22:37;;;;;;;3.70;2.30;;;17.20;99.90;;;;;;5040900;28;20088;-75
2023/06/30 07:25:03;;;;;;;4.22;2.35;;;17.20;99.90;;;;;;5032606;28;20119;-75
2023/06/30 07:27:30;;;;;;;4.38;2.50;;;17.30;99.90;;;;;;5035663;28;20096;-74
2023/06/30 07:29:55;;;;;;;4.10;2.33;;;17.50;99.90;;;;;;5038808;28;20037;-75
2023/06/30 07:32:21;;;;;;;4.22;2.50;;;17.40;99.90;;;;;;5055615;28;20381;-75
2023/06/30 07:34:47;;;;;;;4.65;2.28;;;17.50;99.90;;;;;;5061323;28;20033;-75
2023/06/30 07:37:12;;;;;;;5.90;2.60;;;17.60;99.90;;;;;;5051168;28;20067;-75
2023/06/30 07:39:38;;;;;;;4.80;2.60;;;17.50;99.90;;;;;;5042496;28;20041;-75
2023/06/30 07:42:04;;;;;;;5.75;2.60;;;17.60;99.90;;;;;;5049454;28;20045;-74
2023/06/30 07:44:29;;;;;;;4.28;2.50;;;17.60;99.90;;;;;;5054147;28;20048;-75
2023/06/30 07:46:55;;;;;;;3.80;2.45;;;17.60;99.90;;;;;;5040218;28;20080;-75
2023/06/30 07:49:21;;;;;;;3.15;2.10;;;17.70;99.90;;;;;;5051770;28;20041;-75
2023/06/30 07:51:47;;;;;;;2.47;2.17;;;17.70;99.90;;;;;;5041741;28;20451;-75
2023/06/30 07:54:13;;;;;;;6.72;2.85;;;17.70;99.90;;;;;;5046438;28;20123;-75
2023/06/30 07:56:41;;;;;;;6.60;2.65;;;17.70;99.90;;;;;;5042324;28;20747;-75
2023/06/30 07:59:07;;;;;;;3.78;2.25;;;17.80;99.90;;;;;;5052971;28;20049;-75
2023/06/30 08:01:33;;;;;;;4.22;2.25;;;17.80;99.90;;;;;;5071181;28;20204;-75
2023/06/30 08:03:58;;;;;;;5.05;3.00;;;17.80;99.90;;;;;;5040801;28;20049;-75
2023/06/30 08:06:25;;;;;;;5.15;2.50;;;17.90;99.90;;;;;;5049909;28;20040;-75
2023/06/30 08:08:50;;;;;;;5.80;2.47;;;17.90;99.90;;;;;;5046098;28;20057;-76
2023/06/30 08:11:16;;;;;;;9.05;2.53;;;17.90;99.90;;;;;;5050332;28;20106;-75
2023/06/30 08:13:42;;;;;;;7.03;2.60;;;18.00;99.90;;;;;;5048529;28;20124;-75
2023/06/30 08:16:07;;;;;;;6.07;2.70;;;18.00;99.90;;;;;;5045619;28;20053;-75
2023/06/30 08:18:33;;;;;;;4.55;2.65;;;18.10;99.90;;;;;;5050344;28;20040;-75
2023/06/30 08:20:59;;;;;;;7.72;2.75;;;18.10;99.90;;;;;;5051757;28;20600;-76
2023/06/30 08:23:25;;;;;;;7.97;2.50;;;18.00;99.90;;;;;;5049033;28;20114;-76
2023/06/30 08:25:54;;;;;;;3.72;2.55;;;18.10;99.90;;;;;;5054760;28;20531;-75
2023/06/30 08:28:20;;;;;;;4.95;2.50;;;18.10;99.90;;;;;;5049088;28;20043;-75
2023/06/30 08:30:46;;;;;;;6.15;2.38;;;18.20;99.90;;;;;;5044410;28;20041;-75
2023/06/30 08:33:14;;;;;;;4.60;2.30;;;18.20;99.90;;;;;;5047172;28;20056;-75
2023/06/30 08:35:40;;;;;;;4.40;2.75;;;18.20;99.90;;;;;;5048306;28;20041;-76
2023/06/30 08:38:05;;;;;;;3.53;2.50;;;18.30;99.90;;;;;;5048916;28;20115;-75
2023/06/30 08:40:31;;;;;;;6.07;3.03;;;18.30;99.90;;;;;;5042236;28;20404;-74
2023/06/30 08:42:59;;;;;;;5.63;2.65;;;18.40;99.90;;;;;;5048921;28;20663;-75
2023/06/30 08:45:26;;;;;;;5.47;2.67;;;18.40;99.90;;;;;;5053604;28;20041;-75
2023/06/30 08:47:52;;;;;;;3.25;2.50;;;18.40;99.90;;;;;;5047764;28;20119;-75
2023/06/30 08:50:21;;;;;;;4.47;2.50;;;18.60;99.90;;;;;;5051671;28;20132;-75
2023/06/30 08:52:47;;;;;;;5.20;2.85;;;18.60;99.90;;;;;;5048156;28;20041;-77
2023/06/30 08:55:13;;;;;;;4.70;2.50;;;18.70;99.90;;;;;;5044908;28;20124;-75
2023/06/30 08:57:41;;;;;;;4.00;2.78;;;18.60;99.90;;;;;;5044481;28;20063;-75
2023/06/30 09:00:07;;;;;;;5.43;2.53;;;18.60;99.90;;;;;;5043217;28;20460;-75
2023/06/30 09:02:34;;;;;;;4.60;2.67;;;18.60;99.90;;;;;;5050798;28;20059;-75
2023/06/30 09:05:01;;;;;;;3.83;2.35;;;18.70;99.90;;;;;;5050848;28;20079;-75
2023/06/30 09:07:30;;;;;;;5.35;2.80;;;18.90;99.90;;;;;;5048583;28;20884;-75
2023/06/30 09:10:03;;;;;;;4.18;2.53;;;19.00;99.90;;;;;;5050033;28;20091;-76
2023/06/30 09:12:29;;;;;;;;;;;19.00;99.90;;;;;;5050032;28;20041;-76
2023/06/30 09:14:58;;;;;;;2.70;2.40;;;18.90;99.90;;;;;;5044311;28;19927;-76
2023/06/30 09:17:25;;;;;;;4.40;2.88;;;19.00;99.90;;;;;;5044976;28;20037;-75
2023/06/30 09:19:52;;;;;;;2.83;2.60;;;19.10;99.90;;;;;;5030919;28;20491;-75
2023/06/30 09:22:20;;;;;;;3.38;2.50;;;19.10;99.90;;;;;;5080897;28;20131;-75
2023/06/30 09:24:47;;;;;;;3.30;2.20;;;19.20;99.90;;;;;;5048999;28;20496;-75
2023/06/30 09:27:13;;;;;;;4.07;2.50;;;19.20;99.90;;;;;;5043813;28;20041;-75
2023/06/30 09:29:39;;;;;;;5.07;2.78;;;19.30;99.90;;;;;;5045631;28;20185;-75
2023/06/30 09:32:05;;;;;;;4.90;2.80;;;19.30;99.90;;;;;;5049138;28;20045;-76
2023/06/30 09:34:31;;;;;;;7.38;3.00;;;19.40;99.90;;;;;;5045244;28;20117;-75
2023/06/30 09:36:57;;;;;;;4.38;2.45;;;19.50;99.90;;;;;;5046045;28;20174;-74
2023/06/30 09:39:23;;;;;;;8.32;3.10;;;19.60;99.90;;;;;;5046264;28;20041;-75
2023/06/30 09:41:51;;;;;;;4.30;2.65;;;19.80;99.90;;;;;;5044281;28;20428;-75
2023/06/30 09:44:20;;;;;;;7.97;3.22;;;19.80;99.90;;;;;;5050673;28;20045;-75
2023/06/30 09:46:47;;;;;;;5.20;2.88;;;20.10;99.90;;;;;;5058055;28;20123;-76
2023/06/30 09:49:28;;;;;;;4.82;2.67;;;20.10;99.90;;;;;;5050931;28;20136;-75
2023/06/30 09:51:58;;;;;;;4.28;3.15;;;;;;;;;;5047881;28;20041;-76
2023/06/30 09:54:24;;;;;;;4.07;2.80;;;20.30;99.90;;;;;;5042429;28;20055;-75
2023/06/30 09:56:57;;;;;;;7.07;3.40;;;20.30;99.90;;;;;;5050421;28;20080;-76
2023/06/30 09:59:23;;;;;;;;;;;20.30;99.90;;;;;;5040667;28;20053;-73
2023/06/30 10:01:56;;;;;;;4.10;2.75;;;20.30;99.90;;;;;;5042661;28;20391;-74
2023/06/30 10:04:22;;;;;;;;;;;20.20;99.90;;;;;;5033194;28;20048;-75
2023/06/30 10:06:50;;;;;;;5.40;2.80;;;20.20;99.90;;;;;;5046231;28;19920;-74
2023/06/30 10:09:22;;;;;;;3.45;2.50;;;20.20;99.90;;;;;;5047283;28;20044;-74
2023/06/30 10:11:58;;;;;;;4.68;2.70;;;20.30;99.90;;;;;;5044228;28;20119;-75
2023/06/30 10:14:31;;;;;;;5.95;2.45;;;20.30;99.90;;;;;;5051378;28;20491;-75
2023/06/30 10:17:00;;;;;;;6.18;3.13;;;20.20;99.90;;;;;;5050411;28;20500;-75
2023/06/30 10:19:31;;;;;;;5.60;2.70;;;20.20;99.90;;;;;;5048194;28;20443;-75
2023/06/30 10:21:58;;;;;;;5.13;2.88;;;20.40;99.90;;;;;;5042501;28;20056;-75
2023/06/30 10:24:26;;;;;;;6.30;2.90;;;20.40;99.90;;;;;;5050269;28;20487;-75
2023/06/30 10:26:54;;;;;;;6.43;2.75;;;20.60;99.90;;;;;;5046569;28;20044;-75
2023/06/30 10:29:23;;;;;;;6.22;3.10;;;20.60;99.90;;;;;;5040356;28;20050;-75
2023/06/30 10:31:49;;;;;;;4.40;2.70;;;20.50;99.90;;;;;;5041567;28;20056;-75
2023/06/30 10:34:16;;;;;;;5.00;3.03;;;20.60;99.90;;;;;;5048912;28;20090;-75
2023/06/30 10:36:42;;;;;;;5.22;2.78;;;20.60;99.90;;;;;;5038372;28;20041;-76
2023/06/30 10:39:13;;;;;;;3.30;3.00;;;20.70;99.90;;;;;;5046347;28;20469;-75
2023/06/30 10:41:49;;;;;;;5.22;2.58;;;20.70;99.90;;;;;;5037378;28;20132;-74
2023/06/30 10:44:18;;;;;;;4.10;2.85;;;20.80;99.90;;;;;;5049895;28;20424;-75
2023/06/30 10:46:49;;;;;;;4.88;2.80;;;20.80;99.90;;;;;;5045672;28;20068;-77
2023/06/30 10:49:29;;;;;;;4.82;2.28;;;20.70;99.90;;;;;;5041468;28;20140;-74
2023/06/30 10:51:57;;;;;;;5.15;2.58;;;20.80;99.90;;;;;;5039183;28;20052;-75
2023/06/30 10:54:25;;;;;;;5.75;2.65;;;20.80;99.90;;;;;;5049296;28;20069;-75
2023/06/30 10:57:02;;;;;;;4.88;2.22;;;20.90;99.90;;;;;;5046671;28;20162;-76
2023/06/30 10:59:39;;;;;;;4.55;2.50;;;20.90;99.90;;;;;;5044937;28;20033;-74
2023/06/30 11:02:21;;;;;;;4.05;2.50;;;21.00;99.90;;;;;;5048665;28;20041;-75
2023/06/30 11:04:49;;;;;;;6.10;2.75;;;;;;;;;;5045694;28;20446;-76
2023/06/30 11:07:29;;;;;;;3.83;2.30;;;21.10;99.90;;;;;;5051356;28;20037;-75
2023/06/30 11:09:59;;;;;;;3.58;2.15;;;21.10;99.90;;;;;;5053901;28;20438;-75
2023/06/30 11:12:46;;;;;;;3.30;2.15;;;21.30;99.90;;;;;;5054737;28;20040;-75
2023/06/30 11:15:28;;;;;;;3.65;2.25;;;21.20;99.90;;;;;;5051455;28;20045;-76
2023/06/30 11:17:56;;;;;;;3.35;2.20;;;21.30;99.90;;;;;;5041870;28;20041;-76
2023/06/30 11:20:29;;;;;;;5.05;2.20;;;21.20;99.90;;;;;;5043327;28;20464;-75
2023/06/30 11:22:57;;;;;;;5.68;2.60;;;21.20;99.90;;;;;;5052904;28;20053;-76
2023/06/30 11:25:23;;;;;;;4.45;2.83;;;21.30;99.90;;;;;;5051554;28;20123;-75
2023/06/30 11:27:49;;;;;;;5.65;2.40;;;21.30;99.90;;;;;;5033362;28;20140;-76
2023/06/30 11:30:18;;;;;;;6.95;2.50;;;21.30;99.90;;;;;;5045830;28;20029;-76
2023/06/30 11:32:45;;;;;;;6.45;3.00;;;21.40;99.90;;;;;;5039457;28;20072;-75
2023/06/30 11:35:12;;;;;;;3.50;2.20;;;;;;;;;;5079732;28;20053;-75
2023/06/30 11:37:38;;;;;;;2.55;2.25;;;;;;;;;;5050145;28;20123;-75
2023/06/30 11:40:07;;;;;;;5.68;2.30;;;;;;;;;;5050080;28;20530;-75
2023/06/30 11:42:36;;;;;;;3.78;2.60;;;;;;;;;;5050344;28;20048;-76
2023/06/30 11:45:04;;;;;;;6.47;2.53;;;;;;;;;;5052354;28;20048;-74
2023/06/30 11:47:33;;;;;;;4.68;2.63;;;;;;;;;;5047977;28;20056;-74
2023/06/30 11:50:05;;;;;;;3.67;2.35;;;;;;;;;;5051811;28;20048;-77
2023/06/30 11:52:35;;;;;;;3.97;2.17;;;;;;;;;;5054154;28;20041;-74
2023/06/30 11:55:05;;;;;;;8.25;3.22;;;;;;;;;;5040596;28;20049;-74
2023/06/30 11:57:36;;;;;;;4.13;2.42;;;;;;;;;;5034305;28;20374;-74
2023/06/30 12:00:09;;;;;;;4.68;2.40;;;;;;;;;;5041941;28;20118;-76
2023/06/30 12:02:35;;;;;;;5.15;3.10;;;;;;;;;;5051027;28;20045;-76
2023/06/30 12:05:04;;;;;;;3.10;2.20;;;;;;;;;;5047443;28;20045;-76
2023/06/30 12:07:32;;;;;;;3.85;2.40;;;;;;;;;;5050837;28;20053;-77
2023/06/30 12:10:01;;;;;;;5.75;2.72;;;;;;;;;;5037628;28;20049;-77
2023/06/30 12:12:31;;;;;;;4.07;2.58;;;;;;;;;;5068621;28;20052;-77
2023/06/30 12:14:57;;;;;;;3.47;2.30;;;;;;;;;;5047160;28;20048;-78
2023/06/30 12:17:29;;;;;;;2.60;2.40;;;;;;;;;;5050267;28;20048;-78
2023/06/30 12:19:55;;;;;;;4.37;2.57;;;;;;;;;;5040932;28;20492;-78
2023/06/30 12:22:26;;;;;;;3.75;2.67;;;;;;;;;;5048259;28;20318;-79
2023/06/30 12:24:56;;;;;;;5.22;2.95;;;;;;;;;;5055659;28;20048;-78
2023/06/30 12:27:22;;;;;;;7.18;2.70;;;;;;;;;;5070869;28;20045;-80
2023/06/30 12:29:48;;;;;;;3.42;2.83;;;;;;;;;;5043192;28;20043;-78
2023/06/30 12:32:15;;;;;;;6.53;2.65;;;;;;;;;;5052553;28;20048;-77
2023/06/30 12:34:41;;;;;;;3.90;2.50;;;;;;;;;;5059149;28;20048;-78
2023/06/30 12:37:07;;;;;;;5.00;2.63;;;;;;;;;;5048340;28;20383;-78
2023/06/30 12:39:33;;;;;;;3.75;2.50;;;;;;;;;;5054735;28;20048;-78
2023/06/30 12:41:59;;;;;;;4.00;2.45;;;;;;;;;;5035935;28;20049;-78
2023/06/30 12:44:25;;;;;;;2.80;2.58;;;;;;;;;;5037692;28;20052;-77
2023/06/30 12:47:05;;;;;;;3.53;2.60;;;;;;;;;;5049360;28;20424;-77
2023/06/30 12:49:31;;;;;;;4.72;2.70;;;;;;;;;;5051246;28;20041;-77
2023/06/30 12:51:58;;;;;;;4.90;2.80;;;;;;;;;;5043398;28;20045;-77
2023/06/30 12:54:24;;;;;;;5.80;2.65;;;;;;;;;;5055816;28;20049;-78
2023/06/30 12:56:52;;;;;;;3.63;2.60;;;;;;;;;;5045565;28;20049;-78
2023/06/30 12:59:18;;;;;;;3.60;2.53;;;;;;;;;;5042102;28;20463;-78
2023/06/30 13:01:45;;;;;;;2.78;2.42;;;;;;;;;;5057795;28;20045;-77